Time;durP1;ratioP1;P1;durP2;ratioP2;P2;SDS_P1;SDS_P2;PMS_P1;PMS_P2;Temp;Humidity;BMP_temperature;BMP_pressure;BME280_temperature;BME280_humidity;BME280_pressure;Samples;Min_cycle;Max_cycle;Signal;HPM_P1;HPM_P2
2023/05/21 00:01:15;;;;;;;;;14.00;14.00;;;;;19.87;40.80;101077.75;5020384;28;45431;-65
2023/05/21 00:03:41;;;;;;;;;18.50;16.00;;;;;19.85;41.05;101073.41;5020628;28;45257;-65
2023/05/21 00:06:06;;;;;;;;;13.25;13.25;;;;;19.81;40.88;101068.22;5020267;28;45892;-65
2023/05/21 00:08:33;;;;;;;;;16.50;15.75;;;;;19.78;40.80;101071.00;5020466;28;45224;-65
2023/05/21 00:10:58;;;;;;;;;13.75;13.50;;;;;19.75;40.74;101072.97;5019084;28;45270;-65
2023/05/21 00:13:24;;;;;;;;;17.25;15.50;;;;;19.71;40.77;101066.03;5019031;28;45163;-65
2023/05/21 00:15:49;;;;;;;;;20.25;17.00;;;;;19.69;40.83;101071.47;5019988;28;45224;-65
2023/05/21 00:18:15;;;;;;;;;20.25;19.25;;;;;19.68;40.97;101069.72;5019279;28;45269;-65
2023/05/21 00:20:40;;;;;;;;;12.75;12.00;;;;;19.60;41.21;101062.09;5020511;28;45319;-65
2023/05/21 00:23:06;;;;;;;;;9.50;8.25;;;;;19.62;41.43;101075.34;5020323;28;45450;-65
2023/05/21 00:25:32;;;;;;;;;14.25;13.25;;;;;19.58;41.41;101063.09;5018703;28;47383;-65
2023/05/21 00:27:57;;;;;;;;;16.50;15.50;;;;;19.58;40.94;101073.75;5020219;28;45254;-65
2023/05/21 00:30:22;;;;;;;;;21.50;18.25;;;;;19.51;40.91;101067.88;5018300;28;49904;-65
2023/05/21 00:32:48;;;;;;;;;16.50;16.50;;;;;19.52;41.25;101066.06;5020079;28;45389;-65
2023/05/21 00:35:13;;;;;;;;;19.75;17.25;;;;;19.51;41.50;101073.19;5018434;28;51324;-65
2023/05/21 00:37:39;;;;;;;;;16.50;15.25;;;;;19.47;41.55;101053.81;5018854;28;45413;-65
2023/05/21 00:40:07;;;;;;;;;18.50;18.25;;;;;19.46;41.55;101059.22;5018702;28;45278;-65
2023/05/21 00:42:38;;;;;;;;;16.25;16.25;;;;;19.45;41.30;101058.34;5018510;28;45380;-65
2023/05/21 00:45:05;;;;;;;;;18.00;16.00;;;;;19.41;41.53;101062.09;5018203;28;47538;-65
2023/05/21 00:47:30;;;;;;;;;21.00;18.00;;;;;19.38;41.55;101056.88;5018568;28;45283;-65
2023/05/21 00:49:56;;;;;;;;;19.50;18.75;;;;;19.38;41.16;101051.56;5018570;28;45324;-65
2023/05/21 00:52:22;;;;;;;;;20.50;18.00;;;;;19.36;41.54;101047.22;5023095;28;45254;-65
2023/05/21 00:54:50;;;;;;;;;18.50;17.50;;;;;19.34;41.73;101049.97;5018236;28;45242;-65
2023/05/21 00:57:19;;;;;;;;;19.00;17.75;;;;;19.30;41.62;101043.91;5018598;28;45437;-65
2023/05/21 00:59:46;;;;;;;;;20.75;18.50;;;;;19.27;41.92;101035.19;5018373;28;45338;-66
2023/05/21 01:02:13;;;;;;;;;19.00;18.50;;;;;19.26;42.01;101039.69;5019661;28;45213;-66
2023/05/21 01:04:38;;;;;;;;;21.25;21.25;;;;;19.25;41.88;101045.94;5018078;28;48328;-66
2023/05/21 01:07:05;;;;;;;;;20.25;16.25;;;;;19.23;42.00;101037.16;5019563;28;45259;-65
2023/05/21 01:09:30;;;;;;;;;21.00;17.75;;;;;19.21;41.78;101036.38;5018507;28;45338;-65
2023/05/21 01:11:57;;;;;;;;;22.75;21.50;;;;;19.22;41.91;101032.78;5019330;28;45656;-65
2023/05/21 01:14:23;;;;;;;;;20.00;19.00;;;;;19.19;41.65;101034.72;5019022;28;45517;-65
2023/05/21 01:16:50;;;;;;;;;19.50;17.50;;;;;19.18;41.85;101028.50;5019507;28;45344;-65
2023/05/21 01:19:19;;;;;;;;;19.75;18.25;;;;;19.17;42.08;101034.78;5019534;28;45241;-65
2023/05/21 01:21:48;;;;;;;;;19.75;19.50;;;;;19.16;42.17;101044.56;5019412;28;45241;-65
2023/05/21 01:24:14;;;;;;;;;26.75;21.25;;;;;19.14;42.31;101045.56;5017969;28;47082;-65
2023/05/21 01:26:41;;;;;;;;;19.00;17.50;;;;;19.11;42.23;101046.56;5022763;28;45447;-65
2023/05/21 01:29:11;;;;;;;;;19.50;18.00;;;;;19.07;42.29;101044.97;5021456;28;45281;-65
2023/05/21 01:32:00;;;;;;;;;21.75;21.25;;;;;19.07;42.29;101046.75;5021556;28;45518;-65
2023/05/21 01:34:35;;;;;;;;;19.25;19.25;;;;;19.05;42.35;101048.66;5021136;28;48434;-65
2023/05/21 01:37:16;;;;;;;;;20.75;19.00;;;;;19.03;42.48;101054.06;5022777;28;45353;-65
2023/05/21 01:39:46;;;;;;;;;19.25;16.00;;;;;18.98;42.43;101048.94;5022952;28;45396;-66
2023/05/21 01:42:14;;;;;;;;;17.25;17.25;;;;;18.98;42.32;101048.03;5022565;28;45549;-65
2023/05/21 01:44:41;;;;;;;;;17.00;17.00;;;;;18.92;42.22;101035.03;5022394;28;46154;-66
2023/05/21 01:47:07;;;;;;;;;19.00;18.00;;;;;18.90;42.69;101026.19;5022391;28;45405;-66
2023/05/21 01:49:33;;;;;;;;;21.25;20.00;;;;;18.90;42.36;101035.06;5022628;28;45495;-66
2023/05/21 01:51:58;;;;;;;;;18.75;18.75;;;;;18.89;42.50;101043.94;5025766;28;45528;-66
2023/05/21 01:54:24;;;;;;;;;19.75;18.50;;;;;18.88;42.50;101047.56;5022272;28;45454;-66
2023/05/21 01:56:49;;;;;;;;;21.00;18.25;;;;;18.86;42.48;101044.09;5022482;28;45656;-65
2023/05/21 01:59:16;;;;;;;;;18.00;17.25;;;;;18.87;42.37;101044.97;5022493;28;45527;-65
2023/05/21 02:01:41;;;;;;;;;21.50;18.50;;;;;18.78;42.75;101036.47;5022271;28;45432;-65
2023/05/21 02:04:06;;;;;;;;;20.25;19.50;;;;;18.82;42.51;101048.69;5022105;28;45382;-66
2023/05/21 02:06:32;;;;;;;;;22.50;20.00;;;;;18.81;42.55;101046.97;5021958;28;49690;-66
2023/05/21 02:08:58;;;;;;;;;18.75;18.00;;;;;18.79;43.02;101046.19;5022429;28;45742;-65
2023/05/21 02:11:23;;;;;;;;;24.75;22.75;;;;;18.74;42.73;101045.53;5022118;28;45171;-65
2023/05/21 02:13:49;;;;;;;;;20.25;19.50;;;;;18.73;42.66;101043.78;5021697;28;45534;-65
2023/05/21 02:16:14;;;;;;;;;25.25;22.25;;;;;18.72;42.75;101042.06;5020606;28;45255;-66
2023/05/21 02:18:42;;;;;;;;;23.75;21.00;;;;;18.72;42.97;101052.69;5020948;28;45322;-65
2023/05/21 02:21:09;;;;;;;;;22.00;20.25;;;;;18.68;43.16;101053.78;5021565;28;45334;-66
2023/05/21 02:23:34;;;;;;;;;23.50;20.00;;;;;18.66;43.00;101056.47;5022026;28;46190;-65
2023/05/21 02:26:00;;;;;;;;;24.75;20.50;;;;;18.64;42.70;101052.16;5021692;28;45400;-65
2023/05/21 02:28:26;;;;;;;;;24.75;23.50;;;;;18.64;42.51;101054.81;5020822;28;45348;-66
2023/05/21 02:30:51;;;;;;;;;24.50;21.50;;;;;18.62;43.04;101048.72;5021654;28;45562;-66
2023/05/21 02:33:16;;;;;;;;;21.25;19.50;;;;;18.59;43.08;101046.16;5020448;28;46844;-65
2023/05/21 02:35:42;;;;;;;;;22.00;18.50;;;;;18.56;43.13;101041.84;5021631;28;45268;-66
2023/05/21 02:38:09;;;;;;;;;21.25;20.00;;;;;18.57;43.02;101037.41;5019965;28;45316;-65
2023/05/21 02:40:34;;;;;;;;;25.25;20.75;;;;;18.52;43.26;101035.78;5020232;28;45491;-65
2023/05/21 02:42:59;;;;;;;;;24.50;22.00;;;;;18.54;42.98;101038.41;5021787;28;46166;-65
2023/05/21 02:45:25;;;;;;;;;24.75;20.50;;;;;18.52;43.63;101042.91;5021450;28;45206;-65
2023/05/21 02:47:50;;;;;;;;;21.25;20.50;;;;;18.51;43.17;101050.03;5021864;28;45422;-65
2023/05/21 02:50:15;;;;;;;;;21.25;20.25;;;;;18.50;43.13;101056.28;5021258;28;52501;-66
2023/05/21 02:52:41;;;;;;;;;23.00;22.00;;;;;18.49;43.30;101051.88;5024508;28;45294;-65
2023/05/21 02:55:06;;;;;;;;;23.25;23.25;;;;;18.46;43.53;101045.81;5021477;28;45320;-65
2023/05/21 02:57:32;;;;;;;;;21.00;21.00;;;;;18.45;43.07;101044.97;5021697;28;45431;-65
2023/05/21 02:59:57;;;;;;;;;27.75;25.50;;;;;18.47;43.28;101051.06;5021294;28;45459;-65
2023/05/21 03:02:23;;;;;;;;;21.75;20.50;;;;;18.45;43.42;101058.28;5020058;28;47407;-65
2023/05/21 03:04:49;;;;;;;;;22.75;22.25;;;;;18.44;43.53;101056.53;5021328;28;45304;-65
2023/05/21 03:07:17;;;;;;;;;26.00;24.00;;;;;18.42;43.69;101055.72;5020302;28;45362;-65
2023/05/21 03:09:43;;;;;;;;;23.50;22.75;;;;;18.42;43.66;101050.41;5019867;28;45251;-65
2023/05/21 03:12:09;;;;;;;;;25.75;25.00;;;;;18.40;43.44;101049.63;5021245;28;46288;-65
2023/05/21 03:14:34;;;;;;;;;26.00;25.00;;;;;18.35;43.43;101049.81;5019478;28;45602;-65
2023/05/21 03:17:02;;;;;;;;;29.50;23.50;;;;;18.39;43.82;101055.88;5020192;28;45304;-65
2023/05/21 03:19:29;;;;;;;;;25.75;24.75;;;;;18.38;43.68;101056.81;5019995;28;45294;-65
2023/05/21 03:21:55;;;;;;;;;20.50;20.50;;;;;18.35;43.42;101052.47;5020964;28;45468;-65
2023/05/21 03:24:20;;;;;;;;;23.00;21.00;;;;;18.34;43.68;101045.41;5021056;28;45234;-65
2023/05/21 03:26:47;;;;;;;;;27.00;25.25;;;;;18.32;43.98;101046.41;5021090;28;45309;-65
2023/05/21 03:29:12;;;;;;;;;29.00;23.75;;;;;18.33;43.64;101059.66;5020722;28;45436;-65
2023/05/21 03:31:37;;;;;;;;;25.25;25.25;;;;;18.34;43.85;101064.03;5019544;28;45554;-65
2023/05/21 03:34:03;;;;;;;;;22.25;22.25;;;;;18.31;43.62;101052.66;5019503;28;45295;-65
2023/05/21 03:36:28;;;;;;;;;25.25;25.25;;;;;18.33;43.73;101058.78;5021108;28;45273;-66
2023/05/21 03:38:54;;;;;;;;;24.00;22.50;;;;;18.32;43.77;101065.03;5019471;28;45690;-65
2023/05/21 03:41:20;;;;;;;;;28.50;26.75;;;;;18.31;43.89;101066.84;5020625;28;45382;-65
2023/05/21 03:43:45;;;;;;;;;31.00;27.50;;;;;18.31;43.85;101068.63;5019533;28;45227;-66
2023/05/21 03:46:10;;;;;;;;;26.00;23.50;;;;;18.26;43.89;101054.66;5019512;28;45346;-65
2023/05/21 03:48:36;;;;;;;;;25.25;23.75;;;;;18.27;44.10;101054.56;5019269;28;45396;-65
2023/05/21 03:51:01;;;;;;;;;21.00;20.25;;;;;18.24;44.01;101053.84;5019186;28;48851;-65
2023/05/21 03:53:26;;;;;;;;;22.00;22.00;;;;;18.25;44.13;101058.22;5023718;28;45310;-65
2023/05/21 03:55:53;;;;;;;;;23.50;23.50;;;;;18.20;43.88;101055.78;5020706;28;45284;-65
2023/05/21 03:58:21;;;;;;;;;25.75;24.75;;;;;18.18;43.84;101062.94;5020468;28;45393;-65
2023/05/21 04:00:47;;;;;;;;;29.50;26.25;;;;;18.15;43.72;101061.28;5019006;28;46917;-65
2023/05/21 04:03:12;;;;;;;;;22.25;21.50;;;;;18.16;44.35;101071.00;5020223;28;45226;-65
2023/05/21 04:05:37;;;;;;;;;22.25;22.00;;;;;18.13;43.98;101070.25;5020626;28;45507;-65
2023/05/21 04:08:03;;;;;;;;;25.50;25.50;;;;;18.09;43.82;101068.66;5020537;28;45445;-65
2023/05/21 04:10:28;;;;;;;;;29.00;25.50;;;;;18.11;44.17;101072.09;5018927;28;48039;-65
2023/05/21 04:12:53;;;;;;;;;27.00;25.75;;;;;18.10;44.32;101075.66;5020195;28;45270;-65
2023/05/21 04:15:19;;;;;;;;;25.50;23.00;;;;;18.08;44.34;101081.06;5020195;28;45194;-65
2023/05/21 04:17:44;;;;;;;;;24.75;24.25;;;;;18.05;44.49;101075.88;5020374;28;45265;-65
2023/05/21 04:20:12;;;;;;;;;31.75;28.50;;;;;18.06;43.67;101088.22;5020256;28;46987;-65
2023/05/21 04:22:38;;;;;;;;;28.50;25.00;;;;;18.03;44.19;101085.69;5019007;28;45401;-65
2023/05/21 04:25:03;;;;;;;;;27.50;26.75;;;;;18.01;44.10;101083.13;5020155;28;45400;-65
2023/05/21 04:27:29;;;;;;;;;31.00;25.75;;;;;18.01;44.22;101085.78;5020224;28;45318;-65
2023/05/21 04:29:54;;;;;;;;;26.50;24.25;;;;;18.00;44.33;101083.19;5018190;28;46959;-65
2023/05/21 04:32:20;;;;;;;;;28.25;24.25;;;;;17.98;44.14;101075.25;5020008;28;45441;-65
2023/05/21 04:34:45;;;;;;;;;34.50;28.75;;;;;17.95;44.47;101074.50;5020117;28;45417;-65
2023/05/21 04:37:11;;;;;;;;;25.75;24.25;;;;;17.92;44.61;101078.09;5019742;28;49872;-65
2023/05/21 04:39:36;;;;;;;;;28.25;25.75;;;;;17.93;44.39;101082.50;5018626;28;46495;-65
2023/05/21 04:42:02;;;;;;;;;24.50;24.50;;;;;17.90;44.37;101085.31;5018439;28;45382;-65
2023/05/21 04:44:28;;;;;;;;;28.25;26.50;;;;;17.88;44.58;101081.81;5018660;28;45224;-65
2023/05/21 04:46:53;;;;;;;;;26.25;25.00;;;;;17.87;44.48;101090.72;5019862;28;45419;-65
2023/05/21 04:49:19;;;;;;;;;29.25;28.75;;;;;17.89;44.40;101098.66;5019370;28;45946;-66
2023/05/21 04:51:45;;;;;;;;;25.75;23.75;;;;;17.89;44.78;101093.34;5021566;28;45348;-65
2023/05/21 04:54:10;;;;;;;;;29.50;28.25;;;;;17.90;44.51;101095.06;5019703;28;45390;-65
2023/05/21 04:56:36;;;;;;;;;36.00;30.50;;;;;17.88;44.63;101095.13;5019596;28;45294;-66
2023/05/21 04:59:01;;;;;;;;;28.25;26.25;;;;;17.89;44.55;101093.34;5019600;28;47106;-65
2023/05/21 05:01:28;;;;;;;;;26.00;23.75;;;;;17.87;44.61;101094.25;5022917;28;45465;-65
2023/05/21 05:03:54;;;;;;;;;31.75;28.00;;;;;17.87;44.74;101106.66;5023568;28;45252;-65
2023/05/21 05:06:20;;;;;;;;;33.00;27.75;;;;;17.87;44.95;101101.34;5021769;28;45597;-65
2023/05/21 05:08:46;;;;;;;;;25.75;23.50;;;;;17.84;44.81;101102.34;5023273;28;46223;-65
2023/05/21 05:11:12;;;;;;;;;24.50;23.25;;;;;17.85;44.66;101100.56;5021731;28;45686;-65
2023/05/21 05:13:40;;;;;;;;;31.50;28.50;;;;;17.87;44.71;101090.72;5021872;28;45270;-65
2023/05/21 05:16:06;;;;;;;;;29.50;25.50;;;;;17.86;44.92;101088.97;5022807;28;45544;-65
2023/05/21 05:18:32;;;;;;;;;29.75;27.50;;;;;17.89;44.88;101093.34;5021670;28;47146;-65
2023/05/21 05:20:58;;;;;;;;;35.50;30.75;;;;;17.89;44.98;101088.03;5021554;28;45311;-65
2023/05/21 05:23:23;;;;;;;;;27.25;25.75;;;;;17.87;44.80;101094.25;5021775;28;45319;-65
2023/05/21 05:25:49;;;;;;;;;36.75;29.75;;;;;17.88;45.14;101087.13;5021405;28;45329;-65
2023/05/21 05:28:14;;;;;;;;;29.50;28.00;;;;;17.91;45.11;101095.00;5021552;28;47329;-66
2023/05/21 05:30:39;;;;;;;;;25.25;24.25;;;;;17.87;45.07;101096.03;5021241;28;45306;-65
2023/05/21 05:33:05;;;;;;;;;34.50;31.75;;;;;17.86;45.17;101089.88;5022829;28;45385;-65
2023/05/21 05:35:30;;;;;;;;;30.00;28.00;;;;;17.90;45.05;101097.72;5022589;28;49420;-65
2023/05/21 05:37:55;;;;;;;;;32.25;30.75;;;;;17.91;45.05;101091.47;5022902;28;51175;-64
2023/05/21 05:40:21;;;;;;;;;26.00;26.00;;;;;17.90;45.03;101090.63;5022520;28;45244;-64
2023/05/21 05:42:48;;;;;;;;;29.50;26.75;;;;;17.94;45.07;101102.03;5022842;28;45196;-65
2023/05/21 05:45:14;;;;;;;;;29.50;28.75;;;;;17.92;44.87;101074.59;5022535;28;45311;-65
2023/05/21 05:47:39;;;;;;;;;28.25;27.00;;;;;17.96;45.40;101084.22;5022675;28;46280;-65
2023/05/21 05:50:05;;;;;;;;;33.50;30.00;;;;;17.96;45.05;101084.22;5021199;28;45249;-65
2023/05/21 05:52:30;;;;;;;;;29.75;25.25;;;;;17.95;45.26;101086.00;5023432;28;45467;-65
2023/05/21 05:54:55;;;;;;;;;28.50;27.50;;;;;17.96;45.40;101089.53;5022341;28;45357;-65
2023/05/21 05:57:21;;;;;;;;;32.50;30.75;;;;;17.93;45.27;101084.31;5022380;28;46858;-65
2023/05/21 05:59:46;;;;;;;;;33.50;30.25;;;;;17.96;45.30;101089.53;5022073;28;47224;-65
2023/05/21 06:02:11;;;;;;;;;30.00;29.25;;;;;17.96;45.25;101100.16;5021264;28;45533;-65
2023/05/21 06:04:37;;;;;;;;;29.25;26.25;;;;;17.96;45.16;101102.81;5022309;28;45435;-65
2023/05/21 06:07:02;;;;;;;;;31.75;26.00;;;;;17.95;45.33;101103.75;5022073;28;51434;-65
2023/05/21 06:09:27;;;;;;;;;37.50;33.75;;;;;17.88;45.71;101087.13;5022281;28;45312;-65
2023/05/21 06:11:53;;;;;;;;;33.75;31.50;;;;;17.93;45.35;101092.28;5021070;28;45323;-64
2023/05/21 06:14:18;;;;;;;;;32.50;28.50;;;;;17.93;45.26;101093.13;5021760;28;45431;-64
2023/05/21 06:16:44;;;;;;;;;34.75;32.50;;;;;17.98;45.26;101098.31;5022138;28;45300;-64
2023/05/21 06:19:09;;;;;;;;;32.25;29.75;;;;;17.98;45.30;101098.31;5022182;28;45320;-64
2023/05/21 06:21:34;;;;;;;;;28.75;28.50;;;;;18.02;45.48;101113.22;5021037;28;45358;-64
2023/05/21 06:23:59;;;;;;;;;28.50;26.25;;;;;18.05;45.34;101110.44;5020732;28;45507;-64
2023/05/21 06:26:25;;;;;;;;;34.75;31.25;;;;;18.05;45.57;101112.22;5021557;28;54965;-64
2023/05/21 06:28:50;;;;;;;;;37.00;32.25;;;;;18.08;45.53;101107.66;5021726;28;45330;-64
2023/05/21 06:31:16;;;;;;;;;33.50;29.50;;;;;18.12;45.44;101101.28;5022294;28;45254;-64
2023/05/21 06:33:41;;;;;;;;;31.75;30.50;;;;;18.15;45.56;101111.81;5020408;28;45290;-64
2023/05/21 06:36:07;;;;;;;;;29.75;28.75;;;;;18.17;45.66;101109.94;5020502;28;47833;-64
2023/05/21 06:38:32;;;;;;;;;29.75;28.50;;;;;18.21;45.60;101109.81;5022157;28;45190;-64
2023/05/21 06:40:58;;;;;;;;;37.00;30.75;;;;;18.23;45.41;101106.19;5021932;28;45415;-64
2023/05/21 06:43:23;;;;;;;;;30.75;28.25;;;;;18.29;45.55;101105.06;5021855;28;45394;-64
2023/05/21 06:45:48;;;;;;;;;31.25;27.00;;;;;18.32;45.27;101102.28;5021509;28;46203;-66
2023/05/21 06:48:17;;;;;;;;;31.75;29.00;;;;;18.35;45.74;101104.78;5020362;28;45409;-64
2023/05/21 06:50:43;;;;;;;;;30.00;29.50;;;;;18.39;45.72;101100.22;5020551;28;45352;-64
2023/05/21 06:53:09;;;;;;;;;33.25;30.75;;;;;18.43;45.63;101100.03;5024658;28;45277;-64
2023/05/21 06:55:34;;;;;;;;;29.25;28.50;;;;;18.44;45.78;101096.47;5021391;28;45317;-64
2023/05/21 06:58:00;;;;;;;;;30.75;28.00;;;;;18.50;45.66;101109.50;5021567;28;45332;-65
2023/05/21 07:00:25;;;;;;;;;41.00;34.00;;;;;18.53;45.81;101105.84;5021503;28;45312;-64
2023/05/21 07:02:51;;;;;;;;;41.50;36.50;;;;;18.57;45.59;101107.44;5021458;28;45236;-64
2023/05/21 07:05:16;;;;;;;;;28.75;26.50;;;;;18.59;45.74;101112.69;5021411;28;45292;-64
2023/05/21 07:07:41;;;;;;;;;33.00;29.00;;;;;18.56;45.74;101094.22;5019766;28;51927;-67
2023/05/21 07:10:07;;;;;;;;;29.50;28.50;;;;;18.64;45.80;101121.34;5021576;28;45486;-66
2023/05/21 07:12:33;;;;;;;;;30.75;24.75;;;;;18.67;45.49;101116.75;5021226;28;45201;-67
2023/05/21 07:14:58;;;;;;;;;36.50;30.00;;;;;18.70;45.90;101121.09;5020925;28;46045;-66
2023/05/21 07:17:23;;;;;;;;;28.00;26.25;;;;;18.72;45.78;101113.06;5021272;28;45322;-66
2023/05/21 07:19:49;;;;;;;;;30.75;29.25;;;;;18.73;45.66;101113.00;5019982;28;45191;-66
2023/05/21 07:22:14;;;;;;;;;29.50;25.50;;;;;18.79;45.53;101112.72;5020895;28;45232;-66
2023/05/21 07:24:40;;;;;;;;;27.00;25.75;;;;;18.83;45.63;101114.31;5019474;28;46760;-66
2023/05/21 07:27:05;;;;;;;;;30.50;29.00;;;;;18.84;45.69;101112.53;5019753;28;45366;-66
2023/05/21 07:29:32;;;;;;;;;28.75;27.25;;;;;18.87;45.95;101122.16;5019521;28;45459;-66
2023/05/21 07:31:57;;;;;;;;;30.00;28.75;;;;;18.93;45.52;101119.28;5021137;28;45296;-66
2023/05/21 07:34:23;;;;;;;;;26.00;24.75;;;;;18.93;45.63;101111.28;5002918;28;48215;-66
2023/05/21 07:36:48;;;;;;;;;28.25;27.50;;;;;18.95;45.95;101104.97;5021101;28;45277;-66
2023/05/21 07:39:13;;;;;;;;;30.25;26.50;;;;;19.03;45.73;101119.75;5020862;28;45316;-66
2023/05/21 07:41:39;;;;;;;;;25.75;25.50;;;;;19.03;45.69;101120.63;5019384;28;45629;-66
2023/05/21 07:44:05;;;;;;;;;29.25;28.00;;;;;19.06;45.90;101109.84;5020356;28;45543;-66
2023/05/21 07:46:30;;;;;;;;;20.25;20.25;;;;;19.08;45.55;101110.63;4999668;28;45437;-66
2023/05/21 07:48:57;;;;;;;;;28.00;27.00;;;;;19.10;45.69;101108.75;5018702;28;45477;-66
2023/05/21 07:51:24;;;;;;;;;28.50;25.75;;;;;19.14;45.56;101112.16;5023429;28;45569;-65
2023/05/21 07:53:49;;;;;;;;;26.00;23.00;;;;;19.15;45.78;101096.09;5020577;28;45241;-66
2023/05/21 07:56:15;;;;;;;;;24.00;23.25;;;;;19.16;45.67;101094.31;5019129;28;45326;-66
2023/05/21 07:58:42;;;;;;;;;26.75;26.50;;;;;19.20;45.90;101101.22;5019546;28;45196;-66
2023/05/21 08:01:08;;;;;;;;;29.75;25.00;;;;;19.24;45.71;101100.16;5019305;28;45714;-65
2023/05/21 08:03:33;;;;;;;;;27.00;23.75;;;;;19.26;45.75;101108.94;5020229;28;46593;-66
2023/05/21 08:05:58;;;;;;;;;24.25;23.50;;;;;19.30;45.40;101101.69;5019162;28;45396;-66
2023/05/21 08:08:24;;;;;;;;;25.00;19.75;;;;;19.34;45.97;101100.59;5020604;28;45287;-65
2023/05/21 08:10:49;;;;;;;;;20.00;20.00;;;;;19.37;45.60;101095.16;5020262;28;45363;-65
2023/05/21 08:13:15;;;;;;;;;27.50;21.50;;;;;19.41;45.84;101088.75;5018721;28;46891;-65
2023/05/21 08:15:41;;;;;;;;;24.25;21.75;;;;;19.46;45.42;101083.22;5020279;28;45472;-65
2023/05/21 08:18:06;;;;;;;;;25.50;22.00;;;;;19.47;45.75;101077.78;5020167;28;45243;-65
2023/05/21 08:20:32;;;;;;;;;23.25;22.75;;;;;19.53;45.19;101084.63;5019878;28;54806;-65
2023/05/21 08:22:59;;;;;;;;;21.50;18.75;;;;;19.56;45.90;101081.84;5019926;28;45268;-65
2023/05/21 08:25:25;;;;;;;;;19.00;17.50;;;;;19.60;45.44;101088.75;5019950;28;45368;-67
2023/05/21 08:27:50;;;;;;;;;20.75;19.00;;;;;19.63;44.90;101096.63;5020033;28;45309;-66
2023/05/21 08:30:15;;;;;;;;;18.00;18.00;;;;;19.68;45.50;101083.06;5019797;28;45238;-66
2023/05/21 08:32:41;;;;;;;;;17.75;15.50;;;;;19.72;45.38;101066.00;5019773;28;45397;-66
2023/05/21 08:35:07;;;;;;;;;20.75;19.00;;;;;19.72;45.49;101084.66;5018876;28;45261;-66
2023/05/21 08:37:32;;;;;;;;;19.25;19.25;;;;;19.75;45.60;101088.97;5018675;28;45335;-66
2023/05/21 08:39:58;;;;;;;;;19.75;17.00;;;;;19.76;45.00;101083.56;5019753;28;45571;-66
2023/05/21 08:42:35;;;;;;;;;16.00;11.75;;;;;19.79;44.96;101074.56;5019764;28;45409;-66
2023/05/21 08:45:04;;;;;;;;;20.00;18.75;;;;;19.85;45.35;101081.41;5019521;28;45325;-66
2023/05/21 08:47:33;;;;;;;;;18.00;15.50;;;;;19.85;44.86;101073.41;5019878;28;45559;-66
2023/05/21 08:49:59;;;;;;;;;15.75;14.75;;;;;19.91;44.98;101087.34;5018239;28;45360;-66
2023/05/21 08:52:25;;;;;;;;;15.75;14.00;;;;;19.93;45.03;101081.94;5022686;28;46659;-66
2023/05/21 08:54:55;;;;;;;;;20.50;19.25;;;;;19.96;45.53;101079.09;5018038;28;45368;-69
2023/05/21 08:57:24;;;;;;;;;18.00;16.25;;;;;20.01;44.95;101066.41;5020014;28;45420;-67
2023/05/21 08:59:49;;;;;;;;;20.50;18.50;;;;;20.05;45.42;101084.00;5019302;28;45412;-67
2023/05/21 09:02:17;;;;;;;;;16.00;14.25;;;;;20.07;44.98;101087.44;5019533;28;46320;-67
2023/05/21 09:04:48;;;;;;;;;19.00;18.75;;;;;20.16;45.04;101085.28;5018125;28;45892;-67
2023/05/21 09:07:14;;;;;;;;;19.50;18.25;;;;;20.20;45.23;101086.84;5019712;28;45367;-67
2023/05/21 09:09:53;;;;;;;;;21.00;20.25;;;;;20.25;45.20;101087.47;5017980;28;45501;-67
2023/05/21 09:12:19;;;;;;;;;20.75;19.75;;;;;20.20;45.07;101065.50;5018232;28;46391;-67
2023/05/21 09:14:47;;;;;;;;;23.50;22.25;;;;;20.33;45.24;101090.66;5018902;28;45370;-67
2023/05/21 09:17:13;;;;;;;;;19.25;18.00;;;;;20.38;45.27;101085.09;5018359;28;45334;-68
2023/05/21 09:20:09;;;;;;;;;21.75;20.50;;;;;20.44;44.74;101085.63;5019323;28;45481;-67
2023/05/21 09:22:36;;;;;;;;;26.00;23.00;;;;;20.49;44.74;101085.41;5018645;28;45444;-67
2023/05/21 09:25:09;;;;;;;;;19.00;15.25;;;;;20.57;44.98;101088.53;5017946;28;45269;-68
2023/05/21 09:27:34;;;;;;;;;23.25;21.75;;;;;20.60;45.28;101082.19;5019260;28;45314;-68
2023/05/21 09:30:05;;;;;;;;;25.25;23.00;;;;;20.67;44.67;101075.59;5017810;28;45370;-68
2023/05/21 09:32:30;;;;;;;;;23.00;20.25;;;;;20.75;44.63;101083.25;5018982;28;46206;-67
2023/05/21 09:34:56;;;;;;;;;23.00;19.75;;;;;20.78;44.65;101078.59;5018967;28;45527;-68
2023/05/21 09:37:24;;;;;;;;;23.75;21.00;;;;;20.90;45.20;101076.25;5019371;28;45349;-68
2023/05/21 09:39:50;;;;;;;;;21.25;19.25;;;;;20.96;44.60;101072.41;5018963;28;45256;-68
2023/05/21 09:42:20;;;;;;;;;24.00;21.00;;;;;21.05;45.01;101075.41;5019054;28;45404;-67
2023/05/21 09:44:46;;;;;;;;;21.00;20.25;;;;;21.06;44.78;101057.59;5018997;28;45301;-68
2023/05/21 09:47:11;;;;;;;;;25.00;24.75;;;;;21.21;44.66;101069.28;5021857;28;45461;-68
2023/05/21 09:49:36;;;;;;;;;21.25;21.25;;;;;21.30;44.58;101063.44;5021283;28;45909;-68
2023/05/21 09:52:02;;;;;;;;;25.50;23.25;;;;;21.39;44.59;101062.91;5025124;28;46030;-67
2023/05/21 09:54:32;;;;;;;;;20.00;19.25;;;;;21.50;44.82;101069.50;5022432;28;45396;-67
2023/05/21 09:57:00;;;;;;;;;22.50;20.00;;;;;21.57;44.90;101058.41;5022325;28;45420;-68
2023/05/21 09:59:35;;;;;;;;;20.75;20.00;;;;;21.69;44.76;101058.69;5022224;28;45229;-68
2023/05/21 10:02:03;;;;;;;;;19.50;19.00;;;;;21.80;44.67;101047.38;5022281;28;45302;-68
2023/05/21 10:04:30;;;;;;;;;19.75;19.50;;;;;21.88;44.79;101048.66;5022084;28;45352;-68
2023/05/21 10:06:58;;;;;;;;;23.25;22.25;;;;;22.06;44.18;101059.25;5022550;28;45297;-68
2023/05/21 10:09:24;;;;;;;;;21.50;19.50;;;;;22.15;44.16;101049.84;5022155;28;45470;-68
2023/05/21 10:11:53;;;;;;;;;22.25;20.25;;;;;22.39;44.66;101047.59;5022017;28;45371;-68
2023/05/21 10:14:21;;;;;;;;;15.25;15.25;;;;;22.55;44.44;101047.50;5021401;28;45389;-68
2023/05/21 10:16:47;;;;;;;;;24.75;23.25;;;;;22.78;44.65;101042.56;5022149;28;45388;-68
2023/05/21 10:19:14;;;;;;;;;20.25;20.25;;;;;23.04;45.09;101049.03;5020649;28;45832;-68
2023/05/21 10:21:40;;;;;;;;;17.75;16.75;;;;;23.33;44.79;101049.94;5022009;28;46125;-68
2023/05/21 10:24:07;;;;;;;;;21.50;19.50;;;;;23.69;44.94;101044.97;5021799;28;45245;-69
2023/05/21 10:26:33;;;;;;;;;17.25;16.00;;;;;24.10;45.12;101046.81;5022055;28;45305;-69
2023/05/21 10:29:01;;;;;;;;;17.50;17.50;;;;;24.52;44.92;101037.78;5020163;28;45672;-69
2023/05/21 10:31:28;;;;;;;;;18.25;17.00;;;;;24.97;45.11;101039.13;5021827;28;45253;-69
2023/05/21 10:33:54;;;;;;;;;17.00;16.75;;;;;25.45;45.43;101049.19;5021548;28;45293;-67
2023/05/21 10:36:21;;;;;;;;;20.25;19.25;;;;;25.92;45.48;101041.31;5020507;28;45259;-69
2023/05/21 10:38:46;;;;;;;;;24.00;21.50;;;;;26.37;44.83;101042.50;5020241;28;45559;-69
2023/05/21 10:41:16;;;;;;;;;21.75;18.00;;;;;26.85;45.13;101044.22;5021551;28;46289;-69
2023/05/21 10:44:06;;;;;;;;;19.25;19.00;;;;;27.29;44.93;101042.53;5020084;28;45278;-69
2023/05/21 10:46:59;;;;;;;;;19.00;16.25;;;;;27.78;44.45;101042.25;5021496;28;45424;-69
2023/05/21 10:49:46;;;;;;;;;24.50;18.50;;;;;28.24;44.41;101042.97;5020216;28;45170;-68
2023/05/21 10:52:34;;;;;;;;;15.50;15.25;;;;;28.64;44.36;101042.25;5023957;28;45359;-67
2023/05/21 10:55:22;;;;;;;;;11.50;10.25;;;;;29.10;44.05;101034.72;5003269;28;45406;-68
2023/05/21 10:58:05;;;;;;;;;20.00;20.00;;;;;29.48;44.01;101035.88;5020624;28;45297;-68
2023/05/21 11:00:31;;;;;;;;;19.00;17.00;;;;;29.91;43.98;101037.44;5021012;28;45257;-68
2023/05/21 11:02:59;;;;;;;;;19.50;16.00;;;;;30.26;43.60;101038.69;5003232;28;47352;-68
2023/05/21 11:05:56;;;;;;;;;14.25;14.00;;;;;30.73;42.86;101040.66;5021465;28;45259;-69
2023/05/21 11:08:26;;;;;;;;;16.25;14.50;;;;;31.12;43.03;101039.72;5019963;28;45392;-69